createdAt,value
2023-02-03T00:00:08.443Z,100322.56
2023-02-03T00:03:05.078Z,100325.27
2023-02-03T00:05:54.995Z,100328.73
2023-02-03T00:08:44.430Z,100329.45
2023-02-03T00:11:35.538Z,100335.08
2023-02-03T00:14:25.393Z,100327.06
2023-02-03T00:17:15.578Z,100328.77
2023-02-03T00:20:04.953Z,100333.51
2023-02-03T00:22:55.288Z,100330.15
2023-02-03T00:25:44.252Z,100330.46
2023-02-03T00:28:33.368Z,100325.52
2023-02-03T00:31:23.931Z,100325.85
2023-02-03T00:34:14.019Z,100331.92
2023-02-03T00:37:03.380Z,100329.41
2023-02-03T00:39:54.927Z,100332.12
2023-02-03T00:42:44.295Z,100334.27
2023-02-03T00:45:34.264Z,100332.37
2023-02-03T00:48:24.294Z,100332.14
2023-02-03T00:51:13.475Z,100335.42
2023-02-03T00:54:02.750Z,100340.14
2023-02-03T00:56:52.286Z,100343.58
2023-02-03T00:59:41.473Z,100342.17
2023-02-03T01:02:31.474Z,100344.64
2023-02-03T01:05:21.289Z,100342.56
2023-02-03T01:08:10.615Z,100340.17
2023-02-03T01:11:06.758Z,100339.23
2023-02-03T01:13:56.771Z,100337.50
2023-02-03T01:16:45.828Z,100339.63
2023-02-03T01:19:34.970Z,100338.54
2023-02-03T01:22:24.102Z,100336.14
2023-02-03T01:25:14.078Z,100338.65
2023-02-03T01:28:03.198Z,100334.91
2023-02-03T01:30:52.453Z,100337.83
2023-02-03T01:33:42.303Z,100336.35
2023-02-03T01:36:32.219Z,100334.75
2023-02-03T01:39:21.674Z,100331.55
2023-02-03T01:42:14.671Z,100328.11
2023-02-03T01:45:05.346Z,100326.94
2023-02-03T01:47:55.807Z,100323.88
2023-02-03T01:50:47.252Z,100329.05
2023-02-03T01:53:37.754Z,100330.63
2023-02-03T01:56:28.835Z,100331.04
2023-02-03T01:59:18.366Z,100328.23
2023-02-03T02:02:07.465Z,100327.69
2023-02-03T02:05:33.180Z,100332.58
2023-02-03T02:08:25.265Z,100333.94
2023-02-03T02:11:16.258Z,100338.41
2023-02-03T02:14:05.416Z,100339.61
2023-02-03T02:17:20.019Z,100339.02
2023-02-03T02:20:29.214Z,100343.30
2023-02-03T02:23:25.437Z,100344.02
2023-02-03T02:26:19.349Z,100341.86
2023-02-03T02:29:13.604Z,100342.34
2023-02-03T02:32:14.324Z,100344.33
2023-02-03T02:35:37.218Z,100346.98
2023-02-03T02:38:32.394Z,100345.00
2023-02-03T02:41:42.308Z,100344.60
2023-02-03T02:44:34.678Z,100344.27
2023-02-03T02:47:24.004Z,100345.68
2023-02-03T02:50:27.022Z,100348.84
2023-02-03T02:53:16.092Z,100344.85
2023-02-03T02:56:06.936Z,100344.08
2023-02-03T02:58:56.545Z,100345.30
2023-02-03T03:01:45.579Z,100344.48
2023-02-03T03:04:35.115Z,100343.29
2023-02-03T03:07:25.331Z,100342.73
2023-02-03T03:10:16.283Z,100339.43
2023-02-03T03:13:10.215Z,100340.52
2023-02-03T03:15:59.777Z,100339.45
2023-02-03T03:18:53.732Z,100333.40
2023-02-03T03:21:57.362Z,100329.02
2023-02-03T03:24:51.002Z,100330.81
2023-02-03T03:27:43.423Z,100327.13
2023-02-03T03:30:36.571Z,100327.00
2023-02-03T03:33:31.489Z,100329.30
2023-02-03T03:36:36.047Z,100330.38
2023-02-03T03:39:29.479Z,100331.86
2023-02-03T03:42:51.551Z,100332.70
2023-02-03T03:45:41.255Z,100336.82
2023-02-03T03:48:48.002Z,100335.38
2023-02-03T03:51:56.600Z,100337.81
2023-02-03T03:54:45.933Z,100338.98
2023-02-03T03:57:45.533Z,100340.60
2023-02-03T04:00:35.699Z,100344.02
2023-02-03T04:03:31.837Z,100349.04
2023-02-03T04:06:20.982Z,100351.61
2023-02-03T04:09:10.130Z,100354.92
2023-02-03T04:12:02.652Z,100354.63
2023-02-03T04:14:51.629Z,100359.46
2023-02-03T04:17:40.705Z,100361.64
2023-02-03T04:20:30.718Z,100365.45
2023-02-03T04:23:20.359Z,100366.15
2023-02-03T04:26:10.106Z,100367.33
2023-02-03T04:28:59.961Z,100364.33
2023-02-03T04:31:49.757Z,100367.01
2023-02-03T04:34:39.012Z,100364.28
2023-02-03T04:37:28.095Z,100369.59
2023-02-03T04:40:18.945Z,100366.72
2023-02-03T04:43:09.602Z,100366.26
2023-02-03T04:46:01.941Z,100368.19
2023-02-03T04:48:51.082Z,100369.34
2023-02-03T04:51:41.208Z,100370.29
2023-02-03T04:54:32.628Z,100377.24
2023-02-03T04:57:23.655Z,100379.02
2023-02-03T05:00:13.207Z,100376.92
2023-02-03T05:03:02.660Z,100382.30
2023-02-03T05:05:51.981Z,100386.35
2023-02-03T05:08:41.774Z,100387.58
2023-02-03T05:11:31.700Z,100385.83
2023-02-03T05:14:21.239Z,100387.27
2023-02-03T05:17:10.587Z,100387.10
2023-02-03T05:20:02.594Z,100388.76
2023-02-03T05:22:51.631Z,100388.99
2023-02-03T05:25:40.968Z,100390.64
2023-02-03T05:28:33.260Z,100395.90
2023-02-03T05:31:22.357Z,100401.77
2023-02-03T05:34:12.220Z,100404.93
2023-02-03T05:37:01.687Z,100397.47
2023-02-03T05:39:50.873Z,100395.98
2023-02-03T05:42:47.442Z,100398.14
2023-02-03T05:45:37.471Z,100399.23
2023-02-03T05:48:26.790Z,100397.60
2023-02-03T05:51:15.895Z,100398.17
2023-02-03T05:54:06.302Z,100400.20
2023-02-03T05:56:55.528Z,100401.59
2023-02-03T05:59:45.466Z,100402.58
2023-02-03T06:02:34.436Z,100396.35
2023-02-03T06:05:23.531Z,100401.10
2023-02-03T06:08:12.610Z,100407.04
2023-02-03T06:11:02.920Z,100406.56
2023-02-03T06:13:51.854Z,100410.61
2023-02-03T06:16:42.332Z,100412.44
2023-02-03T06:19:31.778Z,100407.87
2023-02-03T06:22:21.104Z,100407.08
2023-02-03T06:25:12.904Z,100408.83
2023-02-03T06:28:03.173Z,100411.14
2023-02-03T06:30:53.337Z,100420.58
2023-02-03T06:33:42.870Z,100429.39
2023-02-03T06:36:33.033Z,100426.47
2023-02-03T06:39:22.110Z,100428.80
2023-02-03T06:42:11.127Z,100438.92
2023-02-03T06:45:00.251Z,100440.08
2023-02-03T06:47:49.533Z,100442.40
2023-02-03T06:50:38.570Z,100446.98
2023-02-03T06:53:27.478Z,100447.47
2023-02-03T06:56:16.485Z,100448.11
2023-02-03T06:59:05.357Z,100445.04
2023-02-03T07:01:55.176Z,100442.03
2023-02-03T07:04:48.215Z,100439.39
2023-02-03T07:07:39.510Z,100440.44
2023-02-03T07:10:28.646Z,100440.05
2023-02-03T07:13:18.140Z,100441.94
2023-02-03T07:16:07.278Z,100442.20
2023-02-03T07:18:56.647Z,100439.27
2023-02-03T07:21:45.594Z,100435.50
2023-02-03T07:24:34.472Z,100437.52
2023-02-03T07:27:24.414Z,100434.30
2023-02-03T07:30:13.622Z,100434.83
2023-02-03T07:33:02.864Z,100440.02
2023-02-03T07:35:56.103Z,100439.02
2023-02-03T07:38:44.953Z,100442.89
2023-02-03T07:41:35.703Z,100440.55
2023-02-03T07:44:24.699Z,100444.27
2023-02-03T07:47:33.546Z,100439.45
2023-02-03T07:50:22.604Z,100436.86
2023-02-03T07:53:11.892Z,100436.71
2023-02-03T07:56:02.168Z,100437.69
2023-02-03T07:58:54.711Z,100434.09
2023-02-03T08:01:43.763Z,100431.38
2023-02-03T08:04:32.989Z,100429.10
2023-02-03T08:07:22.207Z,100429.05
2023-02-03T08:10:12.489Z,100433.24
2023-02-03T08:13:01.953Z,100437.77
2023-02-03T08:15:51.142Z,100437.48
2023-02-03T08:18:40.426Z,100436.77
2023-02-03T08:21:30.170Z,100427.11
2023-02-03T08:24:19.137Z,100424.05
2023-02-03T08:27:08.138Z,100426.30
2023-02-03T08:29:57.372Z,100424.52
2023-02-03T08:32:46.475Z,100427.98
2023-02-03T08:35:35.510Z,100428.67
2023-02-03T08:38:24.997Z,100426.75
2023-02-03T08:41:15.539Z,100426.70
2023-02-03T08:44:07.239Z,100425.86
2023-02-03T08:46:56.097Z,100424.25
2023-02-03T08:49:45.623Z,100424.31
2023-02-03T08:52:34.861Z,100422.05
2023-02-03T08:55:25.234Z,100418.14
2023-02-03T08:58:14.456Z,100412.53
2023-02-03T09:01:13.328Z,100413.90
2023-02-03T09:04:04.054Z,100410.48
2023-02-03T09:06:56.523Z,100407.79
2023-02-03T09:09:46.156Z,100400.27
2023-02-03T09:12:36.441Z,100394.58
2023-02-03T09:15:26.463Z,100398.55
2023-02-03T09:18:15.429Z,100393.86
2023-02-03T09:21:05.705Z,100391.59
2023-02-03T09:23:54.947Z,100388.67
2023-02-03T09:26:44.816Z,100390.68
2023-02-03T09:29:34.235Z,100388.77
2023-02-03T09:32:23.655Z,100387.12
2023-02-03T09:35:13.103Z,100389.77
2023-02-03T09:38:02.385Z,100381.80
2023-02-03T09:41:10.578Z,100381.39
2023-02-03T09:44:23.101Z,100382.89
2023-02-03T09:47:17.410Z,100385.04
2023-02-03T09:50:07.724Z,100386.93
2023-02-03T09:52:56.920Z,100387.09
2023-02-03T09:55:49.050Z,100387.77
2023-02-03T09:58:38.159Z,100387.06
2023-02-03T10:01:31.200Z,100387.45
2023-02-03T12:04:37.590Z,100359.85
2023-02-03T12:07:40.247Z,100362.89
2023-02-03T12:10:47.674Z,100366.67
2023-02-03T12:13:48.553Z,100369.63
2023-02-03T12:17:03.736Z,100371.21
2023-02-03T12:20:14.685Z,100373.30
2023-02-03T12:23:08.751Z,100369.80
2023-02-03T12:26:06.160Z,100378.54
2023-02-03T12:29:05.133Z,100384.02
2023-02-03T12:32:20.401Z,100388.36
2023-02-03T12:35:34.952Z,100395.15
2023-02-03T12:38:40.362Z,100394.09
2023-02-03T12:41:32.432Z,100393.52
2023-02-03T12:44:30.511Z,100392.70
2023-02-03T12:47:29.640Z,100396.90
2023-02-03T12:50:21.826Z,100400.01
2023-02-03T12:53:28.253Z,100400.02
2023-02-03T12:56:25.844Z,100394.83
2023-02-03T12:59:18.506Z,100397.13
2023-02-03T13:02:19.593Z,100400.20
2023-02-03T13:05:23.452Z,100404.69
2023-02-03T13:08:25.745Z,100405.15
2023-02-03T13:11:29.120Z,100407.38
2023-02-03T13:14:25.666Z,100405.52
2023-02-03T13:17:20.531Z,100409.96
2023-02-03T13:20:24.826Z,100411.28
2023-02-03T13:23:14.327Z,100411.63
2023-02-03T13:26:25.449Z,100412.55
2023-02-03T13:29:23.528Z,100416.88
2023-02-03T13:32:27.619Z,100415.27
2023-02-03T13:35:47.125Z,100418.17
2023-02-03T13:38:50.926Z,100421.41
2023-02-03T13:41:50.126Z,100426.21
2023-02-03T13:44:39.200Z,100427.17
2023-02-03T13:47:30.314Z,100423.10
2023-02-03T13:50:26.116Z,100424.27
2023-02-03T13:53:27.058Z,100422.85
2023-02-03T13:56:25.136Z,100423.65
2023-02-03T13:59:13.953Z,100420.94
2023-02-03T14:02:21.421Z,100421.25
2023-02-03T14:05:38.993Z,100423.92
2023-02-03T14:08:27.710Z,100419.70
2023-02-03T14:11:35.984Z,100424.80
2023-02-03T14:14:24.819Z,100419.85
2023-02-03T14:17:35.384Z,100424.89
2023-02-03T14:20:27.144Z,100423.34
2023-02-03T14:23:39.381Z,100424.84
2023-02-03T14:26:52.241Z,100423.80
2023-02-03T14:29:41.180Z,100421.11
2023-02-03T14:32:52.696Z,100419.35
2023-02-03T14:35:42.442Z,100417.97
2023-02-03T14:38:31.656Z,100416.32
2023-02-03T14:41:25.799Z,100417.10
2023-02-03T14:44:20.539Z,100419.66
2023-02-03T14:47:56.787Z,100418.25
2023-02-03T14:51:15.083Z,100417.65
2023-02-03T14:54:13.086Z,100414.75
2023-02-03T14:57:16.848Z,100416.44
2023-02-03T15:00:10.983Z,100420.09
2023-02-03T15:03:11.774Z,100417.64
2023-02-03T15:06:03.309Z,100415.23
2023-02-03T15:08:55.066Z,100416.77
2023-02-03T15:11:44.419Z,100416.40
2023-02-03T15:14:37.861Z,100417.85
2023-02-03T15:17:27.924Z,100414.73
2023-02-03T15:20:33.301Z,100417.66
2023-02-03T15:23:38.693Z,100420.59
2023-02-03T15:26:27.589Z,100420.61
2023-02-03T15:29:22.078Z,100423.55
2023-02-03T15:32:17.766Z,100423.23
2023-02-03T15:35:07.702Z,100421.90
2023-02-03T15:38:02.337Z,100422.51
2023-02-03T15:40:54.719Z,100420.98
2023-02-03T15:43:45.194Z,100423.21
2023-02-03T15:46:39.755Z,100423.25
2023-02-03T15:49:30.659Z,100421.72
2023-02-03T15:52:21.077Z,100424.23
2023-02-03T15:55:32.106Z,100427.55
2023-02-03T15:58:22.541Z,100427.92
2023-02-03T16:01:17.612Z,100429.98
2023-02-03T16:04:09.997Z,100429.50
2023-02-03T16:06:58.923Z,100429.54
2023-02-03T16:09:54.373Z,100424.75
2023-02-03T16:12:44.943Z,100425.88
2023-02-03T16:15:34.000Z,100424.48
2023-02-03T16:18:22.946Z,100426.83
2023-02-03T16:21:26.159Z,100431.15
2023-02-03T16:24:33.337Z,100430.84
2023-02-03T16:27:28.230Z,100428.36
2023-02-03T16:30:40.303Z,100432.23
2023-02-03T16:33:50.388Z,100432.50
2023-02-03T16:37:02.130Z,100432.88
2023-02-03T16:40:09.406Z,100428.31
2023-02-03T16:43:16.429Z,100425.38
2023-02-03T16:46:28.723Z,100420.19
2023-02-03T16:49:36.385Z,100420.02
2023-02-03T16:52:25.278Z,100415.58
2023-02-03T16:55:14.037Z,100415.73
2023-02-03T16:58:02.860Z,100415.33
2023-02-03T17:00:53.399Z,100416.46
2023-02-03T17:03:42.630Z,100413.90
2023-02-03T17:06:33.535Z,100416.68
2023-02-03T17:09:23.617Z,100416.79
2023-02-03T17:12:20.228Z,100413.54
2023-02-03T17:15:09.533Z,100414.11
2023-02-03T17:17:58.644Z,100413.75
2023-02-03T17:20:47.673Z,100413.09
2023-02-03T17:23:36.606Z,100410.36
2023-02-03T17:26:25.403Z,100410.50
2023-02-03T17:29:14.327Z,100410.38
2023-02-03T17:32:03.149Z,100410.95
2023-02-03T17:34:52.116Z,100408.83
2023-02-03T17:37:41.162Z,100415.29
2023-02-03T17:55:54.523Z,100413.20
2023-02-03T17:58:43.560Z,100417.06
2023-02-03T18:01:33.510Z,100417.55
2023-02-03T18:04:22.405Z,100417.08
2023-02-03T18:07:11.981Z,100418.96
2023-02-03T18:10:01.172Z,100425.80
2023-02-03T18:12:50.217Z,100426.39
2023-02-03T18:15:39.790Z,100426.10
2023-02-03T18:18:29.537Z,100426.98
2023-02-03T18:21:19.063Z,100425.95
2023-02-03T18:24:08.570Z,100425.66
2023-02-03T18:27:00.602Z,100426.66
2023-02-03T18:29:50.269Z,100425.05
2023-02-03T18:32:39.591Z,100424.70
2023-02-03T18:35:29.767Z,100424.01
2023-02-03T18:38:18.678Z,100419.90
2023-02-03T18:41:08.324Z,100415.21
2023-02-03T18:43:57.098Z,100412.27
2023-02-03T18:46:45.904Z,100409.70
2023-02-03T18:49:35.542Z,100408.45
2023-02-03T18:52:24.387Z,100405.80
2023-02-03T18:55:13.056Z,100403.47
2023-02-03T18:58:01.781Z,100399.14
2023-02-03T19:00:51.142Z,100396.05
2023-02-03T19:03:40.308Z,100395.98
2023-02-03T19:06:30.474Z,100397.95
2023-02-03T19:09:20.792Z,100398.25
2023-02-03T19:12:09.612Z,100398.20
2023-02-03T19:14:58.757Z,100403.01
2023-02-03T19:17:49.088Z,100407.49
2023-02-03T19:20:38.045Z,100407.93
2023-02-03T19:23:26.948Z,100405.52
2023-02-03T19:26:15.627Z,100405.23
2023-02-03T19:29:04.531Z,100409.79
2023-02-03T19:31:53.828Z,100410.34
2023-02-03T19:34:42.864Z,100408.13
2023-02-03T19:37:32.493Z,100406.34
2023-02-03T19:40:21.634Z,100402.75
2023-02-03T19:43:10.682Z,100404.17
2023-02-03T19:46:02.824Z,100404.04
2023-02-03T19:48:58.658Z,100405.34
2023-02-03T19:51:50.168Z,100406.70
2023-02-03T19:54:43.501Z,100399.40
2023-02-03T19:57:35.465Z,100403.40
2023-02-03T20:00:25.216Z,100404.02
2023-02-03T20:03:15.707Z,100401.85
2023-02-03T20:06:06.804Z,100402.51
2023-02-03T20:09:07.199Z,100402.76
2023-02-03T20:11:56.484Z,100397.67
2023-02-03T20:14:45.521Z,100400.06
2023-02-03T20:17:34.208Z,100401.29
2023-02-03T20:20:23.467Z,100398.71
2023-02-03T20:23:12.643Z,100394.16
2023-02-03T20:26:01.554Z,100393.84
2023-02-03T20:28:50.226Z,100389.19
2023-02-03T20:31:39.370Z,100392.16
2023-02-03T20:34:27.971Z,100388.20
2023-02-03T20:37:17.090Z,100391.52
2023-02-03T20:40:22.449Z,100394.04
2023-02-03T20:43:24.853Z,100392.00
2023-02-03T20:46:14.937Z,100393.06
2023-02-03T20:49:03.914Z,100399.73
2023-02-03T20:51:52.821Z,100406.69
2023-02-03T20:54:41.750Z,100411.11
2023-02-03T20:57:32.671Z,100408.89
2023-02-03T21:00:23.720Z,100410.45
2023-02-03T21:03:31.872Z,100412.01
2023-02-03T21:06:20.713Z,100408.14
2023-02-03T21:09:13.967Z,100414.55
2023-02-03T21:12:02.933Z,100417.36
2023-02-03T21:14:53.765Z,100416.42
2023-02-03T21:17:42.691Z,100414.77
2023-02-03T21:20:32.108Z,100414.59
2023-02-03T21:23:24.369Z,100415.13
2023-02-03T21:26:21.011Z,100416.91
2023-02-03T21:29:23.118Z,100414.73
2023-02-03T21:32:13.207Z,100415.05
2023-02-03T21:35:01.838Z,100416.19
2023-02-03T21:37:52.926Z,100423.96
2023-02-03T21:40:41.540Z,100423.23
2023-02-03T21:43:30.364Z,100426.83
2023-02-03T21:46:39.893Z,100427.63
2023-02-03T21:49:28.768Z,100425.20
2023-02-03T21:52:17.543Z,100423.22
2023-02-03T21:55:10.550Z,100425.13
2023-02-03T21:57:59.327Z,100426.98
2023-02-03T22:00:48.625Z,100427.16
2023-02-03T22:03:40.651Z,100422.52
2023-02-03T22:06:36.665Z,100424.27
2023-02-03T22:09:26.542Z,100423.20
2023-02-03T22:12:33.623Z,100424.92
2023-02-03T22:15:22.451Z,100426.87
2023-02-03T22:18:11.225Z,100422.91
2023-02-03T22:21:00.157Z,100425.30
2023-02-03T22:23:48.951Z,100423.52
2023-02-03T22:26:37.614Z,100421.70
2023-02-03T22:29:26.404Z,100415.34
2023-02-03T22:32:15.064Z,100415.50
2023-02-03T22:35:03.818Z,100413.96
2023-02-03T22:37:53.899Z,100411.38
2023-02-03T22:40:42.720Z,100410.80
2023-02-03T22:43:31.585Z,100407.71
2023-02-03T22:46:20.584Z,100410.11
2023-02-03T22:49:10.502Z,100408.23
2023-02-03T22:51:59.354Z,100409.80
2023-02-03T22:54:48.558Z,100405.61
2023-02-03T22:57:38.399Z,100401.38
2023-02-03T23:00:27.289Z,100397.23
2023-02-03T23:03:16.013Z,100398.66
2023-02-03T23:06:05.192Z,100392.23
2023-02-03T23:08:55.399Z,100391.96
2023-02-03T23:11:44.090Z,100392.75
2023-02-03T23:14:33.705Z,100398.30
2023-02-03T23:17:22.506Z,100399.01
2023-02-03T23:20:12.141Z,100397.86
2023-02-03T23:23:00.853Z,100393.98
2023-02-03T23:25:49.696Z,100390.09
2023-02-03T23:28:38.980Z,100394.88
2023-02-03T23:31:27.806Z,100396.67
2023-02-03T23:34:34.865Z,100395.55
2023-02-03T23:37:23.872Z,100398.65
2023-02-03T23:40:12.701Z,100400.16
2023-02-03T23:43:02.075Z,100397.58
2023-02-03T23:45:51.194Z,100395.27
2023-02-03T23:48:39.879Z,100397.69
2023-02-03T23:51:28.682Z,100397.89
2023-02-03T23:54:17.318Z,100394.89
2023-02-03T23:57:06.333Z,100400.89
2023-02-03T23:59:55.636Z,100397.84
